West Pittston, Pennsylvania
Current Conditions -  °F | °C
As of 3:54 PM on Monday 24 Nov 2014 (Local Time) from KAVP Reporting Station
Clear Clear  
Wind Chill: 67°   Ceiling: Unl
Heat Index: 67°   Visibility: 10mi
Dew Point: 52°   Wind: 14mph
Humidity: 59%   Direction: 200°SSW
Pressure: 29.51"   Gusts: 28mph
Location:  41.3688°N, 75.837°W
Report Text: KAVP 242054Z 20012G24KT 10SM CLR 19/11 A2951 RMK AO2 PK WND 20031/2007 SLP987 T01940111 53001
Loading
Personal Weather Stations






























Interactive Weather Map New forecast layout! Learn more

10-Day Weather Forecast

Advertisements
Track Severe Weather on mobile